Time;durP1;ratioP1;P1;durP2;ratioP2;P2;SDS_P1;SDS_P2;PMS_P1;PMS_P2;Temp;Humidity;BMP_temperature;BMP_pressure;BME280_temperature;BME280_humidity;BME280_pressure;Samples;Min_cycle;Max_cycle;Signal;HPM_P1;HPM_P2
2021/12/19 00:01:50;;;;;;;11.27;5.33;;;;;;;-0.89;100.00;99913.81;5070478;28;20479;-68
2021/12/19 00:04:26;;;;;;;8.70;5.10;;;;;;;-0.88;100.00;99905.44;5070259;28;20878;-60
2021/12/19 00:09:37;;;;;;;11.43;5.37;;;;;;;-0.82;100.00;99900.31;5070103;28;20462;-60
2021/12/19 00:12:05;;;;;;;10.67;5.80;;;;;;;-0.83;100.00;99908.72;5070297;28;20515;-67
2021/12/19 00:14:32;;;;;;;12.37;5.40;;;;;;;-0.83;100.00;99907.91;5070068;28;20203;-60
2021/12/19 00:16:59;;;;;;;8.40;4.77;;;;;;;-0.90;100.00;99902.13;5070033;28;20223;-68
2021/12/19 00:19:27;;;;;;;11.13;4.57;;;;;;;-0.98;100.00;99899.69;5070252;28;20202;-60
2021/12/19 00:21:54;;;;;;;9.10;5.07;;;;;;;-0.95;100.00;99888.81;5070065;28;20885;-68
2021/12/19 00:24:21;;;;;;;8.67;4.97;;;;;;;-0.95;100.00;99898.84;5070020;28;20237;-67
2021/12/19 00:26:48;;;;;;;11.03;5.00;;;;;;;-0.96;100.00;99894.66;5070288;28;20226;-61
2021/12/19 00:29:15;;;;;;;12.20;5.60;;;;;;;-0.91;100.00;99897.94;5069858;28;20449;-60
2021/12/19 00:31:43;;;;;;;12.13;5.57;;;;;;;-0.87;100.00;99892.06;5070025;28;20515;-60
2021/12/19 00:34:10;;;;;;;8.70;4.90;;;;;;;-0.86;100.00;99883.66;5070307;28;20205;-60
2021/12/19 00:36:38;;;;;;;12.77;5.63;;;;;;;-0.88;100.00;99885.34;5070219;28;20714;-67
2021/12/19 00:39:05;;;;;;;10.67;5.27;;;;;;;-0.88;100.00;99890.38;5069959;28;20543;-68
2021/12/19 00:41:32;;;;;;;12.60;5.73;;;;;;;-0.89;100.00;99888.72;5069979;28;20481;-68
2021/12/19 00:44:08;;;;;;;9.43;5.00;;;;;;;-0.91;100.00;99886.22;5073962;28;20203;-60
2021/12/19 00:46:43;;;;;;;8.97;4.97;;;;;;;-0.79;100.00;99880.19;5073925;28;20657;-67
2021/12/19 00:49:10;;;;;;;7.40;4.27;;;;;;;-0.84;100.00;99869.41;5073577;28;20440;-60
2021/12/19 00:51:39;;;;;;;11.83;5.77;;;;;;;-0.87;100.00;99861.06;5073513;28;20504;-60
2021/12/19 00:54:09;;;;;;;7.33;4.73;;;;;;;-0.86;100.00;99862.75;5073706;28;20236;-60
2021/12/19 00:56:38;;;;;;;9.67;4.83;;;;;;;-0.87;100.00;99866.94;5073420;28;20541;-60
2021/12/19 00:59:05;;;;;;;9.80;5.20;;;;;;;-0.93;100.00;99854.47;5073347;28;20452;-68
2021/12/19 01:01:33;;;;;;;8.77;5.00;;;;;;;-0.92;100.00;99858.63;5073506;28;20210;-60
2021/12/19 01:04:00;;;;;;;10.47;5.37;;;;;;;-0.93;100.00;99846.94;5073319;28;20494;-60
2021/12/19 01:06:28;;;;;;;9.10;4.67;;;;;;;-1.02;100.00;99847.03;5073350;28;20579;-67
2021/12/19 01:08:57;;;;;;;9.90;4.97;;;;;;;-1.00;100.00;99846.19;5073518;28;20459;-67
2021/12/19 01:11:24;;;;;;;11.77;5.20;;;;;;;-1.07;100.00;99848.81;5073031;28;20242;-66
2021/12/19 01:13:51;;;;;;;9.10;4.83;;;;;;;-0.96;100.00;99846.97;5072996;28;20840;-67
2021/12/19 01:16:19;;;;;;;9.40;5.20;;;;;;;-0.94;100.00;99840.25;5073244;28;20484;-66
2021/12/19 01:18:46;;;;;;;10.97;5.00;;;;;;;-0.95;100.00;99836.09;5072959;28;20202;-68
2021/12/19 01:21:13;;;;;;;11.93;4.67;;;;;;;-0.93;100.00;99841.94;5073311;28;20223;-68
2021/12/19 01:23:40;;;;;;;9.00;4.70;;;;;;;-1.02;100.00;99842.88;5072919;28;20445;-67
2021/12/19 01:26:08;;;;;;;8.73;4.70;;;;;;;-0.94;100.00;99837.75;5073295;28;20461;-67
2021/12/19 01:28:35;;;;;;;9.03;4.90;;;;;;;-0.96;100.00;99832.75;5073247;28;20465;-60
2021/12/19 01:31:02;;;;;;;7.97;4.47;;;;;;;-0.97;100.00;99830.25;5073008;28;20231;-68
2021/12/19 01:33:29;;;;;;;11.07;4.97;;;;;;;-0.97;100.00;99825.22;5072742;28;20199;-68
2021/12/19 01:35:56;;;;;;;9.10;4.30;;;;;;;-0.97;100.00;99826.06;5073024;28;20468;-68
2021/12/19 01:38:23;;;;;;;10.67;4.90;;;;;;;-0.98;100.00;99823.59;5072644;28;20199;-67
2021/12/19 01:40:50;;;;;;;9.50;4.40;;;;;;;-1.01;100.00;99818.59;5072739;28;20465;-67
2021/12/19 01:43:24;;;;;;;8.43;4.50;;;;;;;-0.99;100.00;99819.41;5072572;28;20449;-67
2021/12/19 01:45:52;;;;;;;8.37;4.47;;;;;;;-1.02;100.00;99807.75;5072432;28;20461;-60
2021/12/19 01:48:20;;;;;;;8.77;3.93;;;;;;;-1.00;100.00;99801.00;5072563;28;20198;-67
2021/12/19 01:50:48;;;;;;;10.60;4.37;;;;;;;-1.01;100.00;99803.56;5072625;28;20833;-68
2021/12/19 01:53:15;;;;;;;8.20;4.43;;;;;;;-1.03;100.00;99805.25;5072037;28;20954;-67
2021/12/19 01:55:44;;;;;;;9.63;4.73;;;;;;;-0.97;100.00;99795.13;5071999;28;20456;-67
2021/12/19 01:58:12;;;;;;;7.83;4.60;;;;;;;-1.02;100.00;99789.31;5072501;28;20472;-67
2021/12/19 02:00:42;;;;;;;8.73;4.07;;;;;;;-1.04;100.00;99788.53;5072106;28;20213;-67
2021/12/19 02:03:11;;;;;;;8.37;4.53;;;;;;;-1.09;100.00;99792.78;5072405;28;20452;-59
2021/12/19 02:05:39;;;;;;;10.43;4.90;;;;;;;-1.11;100.00;99791.97;5072057;28;20206;-60
2021/12/19 02:08:07;;;;;;;8.20;4.13;;;;;;;-1.12;100.00;99787.81;5071988;28;20791;-60
2021/12/19 02:10:35;;;;;;;8.57;4.33;;;;;;;-1.17;100.00;99793.69;5072202;28;20457;-59
2021/12/19 02:13:04;;;;;;;10.40;4.77;;;;;;;-1.20;100.00;99782.88;5071973;28;20489;-68
2021/12/19 02:15:32;;;;;;;10.43;4.20;;;;;;;-1.12;100.00;99770.25;5072251;28;20453;-59
2021/12/19 02:18:02;;;;;;;9.93;4.43;;;;;;;-1.17;100.00;99767.78;5072217;28;20844;-60
2021/12/19 02:20:34;;;;;;;9.07;4.17;;;;;;;-1.23;100.00;99766.19;5072124;28;20464;-60
2021/12/19 02:23:01;;;;;;;8.97;4.20;;;;;;;-1.20;100.00;99763.63;5072093;28;20469;-60
2021/12/19 02:25:28;;;;;;;9.93;4.97;;;;;;;-1.23;100.00;99752.81;5072088;28;20472;-67
2021/12/19 02:27:55;;;;;;;9.90;4.60;;;;;;;-1.16;100.00;99755.22;5071817;28;20468;-60
2021/12/19 02:30:22;;;;;;;9.53;4.60;;;;;;;-1.16;100.00;99755.22;5071623;28;20763;-60
2021/12/19 02:32:49;;;;;;;9.30;4.60;;;;;;;-1.18;100.00;99749.41;5071423;28;20488;-60
2021/12/19 02:35:21;;;;;;;7.90;4.50;;;;;;;-1.09;100.00;99750.13;5071643;28;20453;-67
2021/12/19 02:48:08;;;;;;;8.20;4.67;;;;;;;-1.17;100.00;99741.00;5068930;28;20457;-60
2021/12/19 02:48:53;;;;;;;9.43;4.50;;;;;;;-1.05;100.00;99721.63;5071421;28;20807;-60
2021/12/19 02:51:20;;;;;;;8.20;4.47;;;;;;;-0.99;100.00;99708.97;5071312;28;20640;-60
2021/12/19 02:53:48;;;;;;;6.97;3.77;;;;;;;-0.99;100.00;99717.34;5070988;28;20449;-60
2021/12/19 02:56:15;;;;;;;8.67;4.30;;;;;;;-1.05;100.00;99714.91;5071494;28;20476;-60
2021/12/19 02:58:44;;;;;;;8.47;4.23;;;;;;;-1.09;100.00;99715.00;5071321;28;20452;-68
2021/12/19 03:01:15;;;;;;;8.87;4.43;;;;;;;-1.04;100.00;99715.75;5070841;28;21032;-60
2021/12/19 03:03:42;;;;;;;7.73;3.53;;;;;;;-1.07;100.00;99708.28;5071051;28;20440;-60
2021/12/19 03:06:09;;;;;;;7.53;4.17;;;;;;;-1.03;100.00;99703.19;5070985;28;20863;-68
2021/12/19 03:08:41;;;;;;;7.23;3.60;;;;;;;-1.05;100.00;99702.34;5070824;28;20449;-68
2021/12/19 03:19:29;;;;;;;7.40;3.73;;;;;;;-1.17;100.00;99697.53;5071043;28;20802;-60
2021/12/19 03:21:56;;;;;;;9.90;4.43;;;;;;;-1.15;100.00;99695.84;5070717;28;20476;-68
2021/12/19 03:24:22;;;;;;;6.83;3.73;;;;;;;-1.14;100.00;99688.28;5070771;28;20461;-68
2021/12/19 03:26:50;;;;;;;6.10;3.53;;;;;;;-1.15;100.00;99694.16;5070509;28;20480;-60
2021/12/19 03:29:17;;;;;;;6.47;3.67;;;;;;;-1.20;100.00;99693.38;5070648;28;20449;-68
2021/12/19 03:31:44;;;;;;;8.40;4.23;;;;;;;-1.25;100.00;99687.63;5070806;28;20496;-67
2021/12/19 03:34:13;;;;;;;6.93;3.60;;;;;;;-1.22;100.00;99685.06;5070652;28;20445;-68
2021/12/19 03:36:40;;;;;;;6.37;3.70;;;;;;;-1.23;100.00;99682.56;5070884;28;20219;-68
2021/12/19 03:39:14;;;;;;;12.33;4.30;;;;;;;-1.24;100.00;99679.25;5070859;28;20449;-68
2021/12/19 03:41:41;;;;;;;7.67;4.17;;;;;;;-1.31;100.00;99675.19;5070433;28;20479;-67
2021/12/19 03:44:10;;;;;;;5.47;3.33;;;;;;;-1.38;100.00;99668.56;5070407;28;20444;-68
2021/12/19 03:46:37;;;;;;;6.10;3.57;;;;;;;-1.46;100.00;99670.34;5070645;28;20887;-60
2021/12/19 03:49:05;;;;;;;6.17;3.63;;;;;;;-1.47;100.00;99673.72;5070759;28;20709;-68
2021/12/19 03:51:32;;;;;;;7.37;3.40;;;;;;;-1.52;100.00;99665.44;5070255;28;20485;-59
2021/12/19 03:53:59;;;;;;;6.07;3.17;;;;;;;-1.56;100.00;99668.84;5070335;28;20441;-68
2021/12/19 03:56:26;;;;;;;7.53;3.97;;;;;;;-1.56;100.00;99668.84;5070628;28;20847;-67
2021/12/19 03:58:53;;;;;;;7.60;3.80;;;;;;;-1.61;100.00;99662.19;5070325;28;20441;-59
2021/12/19 04:01:22;;;;;;;5.90;3.40;;;;;;;-1.67;100.00;99664.78;5070702;28;20877;-67
2021/12/19 04:03:48;;;;;;;7.30;3.73;;;;;;;-1.68;100.00;99663.13;5070062;28;20445;-67
2021/12/19 04:06:15;;;;;;;7.27;3.90;;;;;;;-1.71;100.00;99650.66;5070369;28;20475;-60
2021/12/19 04:08:42;;;;;;;6.23;3.70;;;;;;;-1.73;100.00;99641.47;5070047;28;20954;-60
2021/12/19 04:11:09;;;;;;;5.57;3.43;;;;;;;-1.75;100.00;99644.00;5070262;28;20476;-67
2021/12/19 04:13:36;;;;;;;6.90;3.40;;;;;;;-1.78;100.00;99644.03;5069953;28;21070;-67
2021/12/19 04:16:03;;;;;;;7.03;3.50;;;;;;;-1.75;100.00;99643.16;5070411;28;20453;-68
2021/12/19 04:18:31;;;;;;;6.80;3.77;;;;;;;-1.68;100.00;99630.53;5073246;28;20447;-60
2021/12/19 04:20:58;;;;;;;6.83;3.87;;;;;;;-1.66;100.00;99638.88;5074549;28;20521;-60
2021/12/19 04:23:26;;;;;;;6.57;3.67;;;;;;;-1.75;100.00;99638.97;5074676;28;20453;-67
2021/12/19 04:25:53;;;;;;;6.30;3.63;;;;;;;-1.72;100.00;99628.91;5074337;28;20460;-65
2021/12/19 04:28:20;;;;;;;5.83;3.27;;;;;;;-1.77;100.00;99630.69;5073997;28;20460;-68
2021/12/19 04:30:47;;;;;;;5.83;3.30;;;;;;;-1.79;100.00;99627.34;5073855;28;20468;-60
2021/12/19 04:33:14;;;;;;;6.63;3.73;;;;;;;-1.86;100.00;99625.78;5074108;28;20531;-60
2021/12/19 04:35:45;;;;;;;7.33;3.70;;;;;;;-1.83;100.00;99620.72;5074017;28;20457;-59
2021/12/19 04:41:12;;;;;;;7.43;3.87;;;;;;;-1.83;100.00;99613.22;5074116;28;20432;-68
2021/12/19 04:52:26;;;;;;;9.83;3.83;;;;;;;-1.84;100.00;99599.00;5073766;28;20510;-59
2021/12/19 04:55:13;;;;;;;7.50;4.00;;;;;;;-1.82;100.00;99592.31;5073606;28;20453;-63
2021/12/19 04:57:46;;;;;;;6.23;3.67;;;;;;;-1.74;100.00;99598.06;5073196;28;20456;-60
2021/12/19 05:00:17;;;;;;;8.13;4.00;;;;;;;-1.75;100.00;99596.38;5073517;28;20472;-60
2021/12/19 05:02:52;;;;;;;7.07;3.33;;;;;;;-1.79;100.00;99592.25;5073186;28;20460;-67
2021/12/19 05:16:10;;;;;;;8.60;3.80;;;;;;;-1.76;100.00;99586.38;5073188;28;20490;-59
2021/12/19 05:18:39;;;;;;;7.90;3.57;;;;;;;-1.80;100.00;99585.59;5073123;28;20950;-60
2021/12/19 05:21:13;;;;;;;8.10;3.37;;;;;;;-1.73;100.00;99587.16;5073246;28;20456;-60
2021/12/19 05:24:04;;;;;;;5.50;3.17;;;;;;;-1.80;100.00;99590.63;5073120;28;20460;-60
2021/12/19 05:26:30;;;;;;;8.77;3.63;;;;;;;-1.79;100.00;99594.78;5072930;28;20472;-68
2021/12/19 05:28:57;;;;;;;6.43;3.33;;;;;;;-1.77;100.00;99583.06;5071848;28;20977;-59
2021/12/19 05:31:24;;;;;;;5.77;3.40;;;;;;;-1.79;100.00;99584.75;5072821;28;20853;-59
2021/12/19 05:33:51;;;;;;;6.43;3.37;;;;;;;-1.84;100.00;99588.97;5072875;28;20496;-68
2021/12/19 05:47:27;;;;;;;5.67;3.03;;;;;;;-1.91;100.00;99582.41;5072923;28;20567;-59
2021/12/19 05:49:54;;;;;;;4.93;2.70;;;;;;;-1.97;100.00;99573.31;5072594;28;20445;-67
2021/12/19 05:52:20;;;;;;;7.03;3.40;;;;;;;-1.99;100.00;99579.19;5072491;28;20610;-67
2021/12/19 05:54:49;;;;;;;6.57;3.60;;;;;;;-1.93;100.00;99574.09;5072790;28;20449;-59
2021/12/19 05:57:15;;;;;;;7.77;3.67;;;;;;;-1.94;100.00;99572.44;5072341;28;20469;-68
2021/12/19 05:59:42;;;;;;;8.27;4.03;;;;;;;-1.96;100.00;99576.63;5072445;28;20481;-67
2021/12/19 06:02:09;;;;;;;6.13;3.60;;;;;;;-1.88;100.00;99572.34;5072131;28;20468;-60
2021/12/19 06:04:36;;;;;;;6.27;3.30;;;;;;;-1.95;100.00;99579.13;5072367;28;20812;-68
2021/12/19 06:07:03;;;;;;;7.93;3.50;;;;;;;-1.87;100.00;99574.00;5072013;28;20472;-68
2021/12/19 06:09:30;;;;;;;9.00;3.77;;;;;;;-1.86;100.00;99570.66;5072078;28;20445;-68
2021/12/19 06:11:58;;;;;;;6.73;3.63;;;;;;;-1.83;100.00;99565.59;5072271;28;21014;-59
2021/12/19 06:14:31;;;;;;;7.97;3.93;;;;;;;-1.84;100.00;99561.41;5072087;28;20930;-67
2021/12/19 06:16:57;;;;;;;5.30;3.60;;;;;;;-1.86;100.00;99555.63;5072259;28;20469;-68
2021/12/19 06:19:24;;;;;;;10.27;3.87;;;;;;;-1.84;100.00;99558.91;5072060;28;20459;-67
2021/12/19 06:21:51;;;;;;;6.23;3.37;;;;;;;-1.80;100.00;99558.03;5071681;28;20473;-59
2021/12/19 06:24:18;;;;;;;7.50;3.67;;;;;;;-1.80;100.00;99560.53;5072243;28;20848;-68
2021/12/19 06:26:45;;;;;;;7.40;3.63;;;;;;;-1.73;100.00;99556.25;5071696;28;20903;-59
2021/12/19 06:29:14;;;;;;;7.73;3.90;;;;;;;-1.66;100.00;99550.28;5071718;28;20522;-68
2021/12/19 06:31:41;;;;;;;7.07;4.00;;;;;;;-1.65;100.00;99550.28;5071481;28;20488;-60
2021/12/19 06:34:07;;;;;;;7.00;3.97;;;;;;;-1.61;100.00;99548.56;5071828;28;20488;-60
2021/12/19 06:36:36;;;;;;;6.97;3.53;;;;;;;-1.56;100.00;99533.44;5071526;28;20964;-60
2021/12/19 06:39:04;;;;;;;7.40;3.80;;;;;;;-1.54;100.00;99546.75;5072143;28;20445;-68
2021/12/19 06:41:31;;;;;;;9.13;3.93;;;;;;;-1.46;100.00;99535.75;5071056;28;20997;-60
2021/12/19 06:43:58;;;;;;;6.20;3.77;;;;;;;-1.43;100.00;99535.72;5071748;28;20887;-67
2021/12/19 06:46:26;;;;;;;7.57;3.73;;;;;;;-1.29;100.00;99527.16;5071606;28;20488;-67
2021/12/19 06:48:52;;;;;;;9.60;4.13;;;;;;;-1.26;100.00;99532.94;5071615;28;20487;-67
2021/12/19 06:51:19;;;;;;;7.67;3.70;;;;;;;-1.18;100.00;99535.31;5071747;28;20480;-59
2021/12/19 06:53:46;;;;;;;9.63;3.97;;;;;;;-1.17;100.00;99525.25;5071340;28;20488;-68
2021/12/19 06:56:13;;;;;;;8.43;4.00;;;;;;;-1.04;100.00;99525.06;5071445;28;20476;-68
2021/12/19 06:58:40;;;;;;;10.17;4.43;;;;;;;-0.89;100.00;99516.41;5071447;28;20449;-67
2021/12/19 07:01:06;;;;;;;9.90;4.40;;;;;;;-0.71;100.00;99506.00;5071237;28;20475;-67
2021/12/19 07:03:35;;;;;;;4.80;2.77;;;;;;;-0.57;100.00;99509.06;5070900;28;20264;-59
2021/12/19 07:06:02;;;;;;;11.00;4.80;;;;;;;-0.49;100.00;99496.38;5071212;28;20949;-68
2021/12/19 07:08:29;;;;;;;8.80;4.00;;;;;;;-0.31;100.00;99500.19;5071030;28;20480;-67
2021/12/19 07:10:59;;;;;;;7.90;4.43;;;;;;;-0.27;100.00;99499.25;5071288;28;20298;-59
2021/12/19 07:13:25;;;;;;;7.87;4.30;;;;;;;-0.11;100.00;99502.25;5070972;28;20238;-60
2021/12/19 07:15:54;;;;;;;9.53;4.57;;;;;;;0.06;100.00;99485.13;5070962;28;20225;-68
2021/12/19 07:18:22;;;;;;;8.33;4.50;;;;;;;0.25;100.00;99484.69;5070979;28;20195;-68
2021/12/19 07:20:50;;;;;;;9.97;4.57;;;;;;;0.36;100.00;99483.56;5070889;28;20214;-60
2021/12/19 07:23:19;;;;;;;8.20;4.63;;;;;;;0.47;99.56;99477.41;5070705;28;20199;-68
2021/12/19 07:25:46;;;;;;;10.10;4.63;;;;;;;0.48;99.10;99479.91;5070650;28;20195;-60
2021/12/19 07:28:14;;;;;;;10.77;4.73;;;;;;;0.59;98.84;99477.13;5070710;28;20198;-67
2021/12/19 07:30:41;;;;;;;8.07;4.53;;;;;;;0.74;98.68;99473.41;5070601;28;20595;-67
2021/12/19 07:33:10;;;;;;;9.90;4.60;;;;;;;0.79;97.93;99466.56;5070422;28;20248;-60
2021/12/19 07:35:41;;;;;;;9.17;4.63;;;;;;;0.76;97.78;99466.66;5070677;28;20202;-60
2021/12/19 07:38:15;;;;;;;11.50;4.97;;;;;;;0.84;97.71;99464.72;5070638;28;20241;-68
2021/12/19 07:40:46;;;;;;;10.00;4.40;;;;;;;0.89;97.33;99470.47;5070911;28;20577;-60
2021/12/19 07:43:14;;;;;;;9.50;4.90;;;;;;;0.93;97.91;99464.47;5070686;28;20206;-60
2021/12/19 07:45:41;;;;;;;10.13;4.90;;;;;;;0.99;97.98;99473.56;5070755;28;20202;-68
2021/12/19 07:48:07;;;;;;;9.07;5.10;;;;;;;1.08;97.55;99473.34;5070206;28;20222;-68
2021/12/19 07:50:34;;;;;;;7.90;4.67;;;;;;;1.15;97.26;99473.97;5070396;28;20213;-60
2021/12/19 07:53:03;;;;;;;10.03;4.70;;;;;;;1.19;96.74;99481.41;5069951;28;20237;-68
2021/12/19 07:55:32;;;;;;;9.27;4.13;;;;;;;1.26;96.83;99477.84;5070759;28;20209;-67
2021/12/19 07:57:59;;;;;;;9.37;5.07;;;;;;;1.42;97.07;99472.38;5070428;28;20609;-61
2021/12/19 08:00:26;;;;;;;9.57;5.23;;;;;;;1.65;96.80;99470.00;5070687;28;20231;-67
2021/12/19 08:02:52;;;;;;;9.10;4.73;;;;;;;1.80;95.65;99463.69;5070096;28;20237;-60
2021/12/19 08:05:21;;;;;;;19.53;8.80;;;;;;;1.88;95.28;99460.94;5070324;28;20229;-67
2021/12/19 08:07:54;;;;;;;9.87;5.23;;;;;;;2.02;94.27;99459.63;5070254;28;20309;-68
2021/12/19 08:13:05;;;;;;;10.43;5.70;;;;;;;2.30;93.06;99458.78;5070082;28;20226;-59
2021/12/19 08:15:33;;;;;;;10.73;5.60;;;;;;;2.45;93.35;99458.25;5070480;28;20214;-68
2021/12/19 08:18:00;;;;;;;8.70;5.03;;;;;;;2.50;91.81;99455.56;5070073;28;20215;-67
2021/12/19 08:20:27;;;;;;;11.37;5.90;;;;;;;2.59;91.07;99450.22;5070475;28;20202;-68
2021/12/19 08:22:54;;;;;;;10.27;5.77;;;;;;;2.66;90.17;99443.28;5070139;28;20229;-61
2021/12/19 08:25:21;;;;;;;12.33;6.23;;;;;;;2.62;89.30;99449.31;5070117;28;20570;-68
2021/12/19 08:27:48;;;;;;;12.23;5.97;;;;;;;2.57;90.01;99446.09;5070165;28;20218;-60
2021/12/19 08:30:17;;;;;;;12.50;5.57;;;;;;;2.66;90.47;99443.28;5070128;28;20714;-68
2021/12/19 08:32:44;;;;;;;11.30;5.37;;;;;;;2.84;89.83;99450.19;5069498;28;20232;-60
2021/12/19 08:35:12;;;;;;;10.13;4.83;;;;;;;3.00;89.14;99444.63;5070262;28;20225;-68
2021/12/19 08:37:39;;;;;;;11.60;5.30;;;;;;;2.95;89.37;99437.22;5069665;28;20214;-60
2021/12/19 08:40:10;;;;;;;10.87;4.93;;;;;;;3.13;88.91;99438.25;5070041;28;20652;-60
2021/12/19 08:42:37;;;;;;;13.10;6.10;;;;;;;3.25;87.43;99439.50;5069860;28;20723;-60
2021/12/19 08:45:04;;;;;;;9.60;5.40;;;;;;;3.31;87.92;99429.97;5070194;28;20229;-66
2021/12/19 08:47:33;;;;;;;9.37;5.10;;;;;;;3.35;87.66;99421.44;5070089;28;20221;-60
2021/12/19 08:49:59;;;;;;;8.83;4.70;;;;;;;3.33;86.74;99428.22;5070152;28;20210;-68
2021/12/19 08:52:26;;;;;;;9.27;4.70;;;;;;;3.51;87.43;99415.78;5069978;28;20222;-68
2021/12/19 08:54:53;;;;;;;19.17;9.07;;;;;;;3.44;87.57;99402.56;5069903;28;20235;-63
2021/12/19 08:57:20;;;;;;;15.27;7.13;;;;;;;3.52;87.11;99397.19;5069663;28;20229;-60
2021/12/19 08:59:47;;;;;;;14.37;6.73;;;;;;;3.56;87.79;99398.75;5069682;28;20209;-60
2021/12/19 09:02:14;;;;;;;15.40;7.77;;;;;;;3.73;86.66;99401.44;5069760;28;20732;-68
2021/12/19 09:04:42;;;;;;;11.50;6.50;;;;;;;3.82;86.92;99390.16;5072904;28;20199;-60
2021/12/19 09:07:09;;;;;;;11.63;5.87;;;;;;;4.01;86.72;99385.16;5073199;28;20716;-60
2021/12/19 09:09:36;;;;;;;11.20;5.77;;;;;;;4.07;86.36;99378.16;5073218;28;20211;-60
2021/12/19 09:12:03;;;;;;;11.50;5.53;;;;;;;3.71;86.67;99372.84;5073904;28;20672;-68
2021/12/19 09:14:30;;;;;;;13.63;6.17;;;;;;;3.96;87.34;99371.91;5073245;28;20237;-60
2021/12/19 09:16:57;;;;;;;11.33;5.73;;;;;;;3.61;86.35;99366.53;5073424;28;20260;-60
2021/12/19 09:19:25;;;;;;;12.53;6.37;;;;;;;3.78;87.10;99359.09;5073103;28;20207;-60
2021/12/19 09:21:53;;;;;;;13.67;6.47;;;;;;;3.97;86.87;99355.81;5072990;28;20246;-68
2021/12/19 09:24:20;;;;;;;13.50;6.07;;;;;;;4.03;84.62;99342.91;5072930;28;20209;-60
2021/12/19 09:26:47;;;;;;;14.00;6.83;;;;;;;4.18;85.05;99346.50;5073151;28;20767;-60
2021/12/19 09:29:14;;;;;;;11.17;6.67;;;;;;;4.45;84.45;99335.22;5072982;28;20203;-69
2021/12/19 09:31:41;;;;;;;13.37;6.57;;;;;;;4.46;83.10;99320.88;5072984;28;20241;-68
2021/12/19 09:34:08;;;;;;;15.10;7.10;;;;;;;4.71;83.58;99320.59;5072786;28;20237;-61
2021/12/19 09:36:35;;;;;;;13.30;7.00;;;;;;;5.02;81.69;99320.03;5072877;28;20226;-60
2021/12/19 09:39:03;;;;;;;11.57;6.30;;;;;;;5.17;81.11;99304.13;5073443;28;20226;-61
2021/12/19 09:41:34;;;;;;;11.37;5.77;;;;;;;5.21;80.09;99304.81;5072973;28;20219;-68
2021/12/19 09:44:03;;;;;;;11.87;5.97;;;;;;;5.38;81.01;99301.47;5072839;28;20226;-60
2021/12/19 09:46:32;;;;;;;12.20;6.83;;;;;;;5.61;79.10;99303.75;5072603;28;20276;-60
2021/12/19 09:48:59;;;;;;;10.93;5.57;;;;;;;5.49;79.09;99294.16;5072771;28;20203;-60
2021/12/19 09:51:26;;;;;;;12.97;6.93;;;;;;;5.63;79.78;99289.25;5072764;28;20230;-68
2021/12/19 09:53:53;;;;;;;14.80;7.53;;;;;;;5.81;79.41;99294.31;5072420;28;20227;-68
2021/12/19 09:56:22;;;;;;;11.50;6.40;;;;;;;5.86;79.32;99282.25;5072402;28;20389;-68
2021/12/19 09:58:50;;;;;;;14.53;6.03;;;;;;;6.02;78.29;99267.94;5072651;28;20209;-68
2021/12/19 10:01:17;;;;;;;11.77;5.83;;;;;;;6.12;78.28;99268.28;5072567;28;20230;-60
2021/12/19 10:03:44;;;;;;;12.13;5.70;;;;;;;6.25;77.41;99278.59;5072301;28;20207;-68
2021/12/19 10:06:21;;;;;;;11.60;5.70;;;;;;;5.98;76.82;99266.44;5072366;28;20229;-68
2021/12/19 10:08:53;;;;;;;13.07;6.57;;;;;;;6.03;78.41;99250.97;5072528;28;20199;-60
2021/12/19 10:11:32;;;;;;;11.87;5.73;;;;;;;5.88;78.33;99257.63;5072268;28;20258;-68
2021/12/19 10:13:59;;;;;;;13.17;6.73;;;;;;;5.62;78.44;99258.91;5072214;28;20234;-59
2021/12/19 10:16:29;;;;;;;14.13;6.17;;;;;;;5.01;79.51;99254.25;5071595;28;20223;-68
2021/12/19 10:18:59;;;;;;;11.30;5.57;;;;;;;4.54;81.62;99253.00;5072337;28;20222;-68
2021/12/19 10:21:27;;;;;;;11.23;6.63;;;;;;;4.61;83.05;99236.63;5072181;28;20234;-67
2021/12/19 10:23:59;;;;;;;14.83;6.97;;;;;;;4.58;82.02;99229.16;5072009;28;20194;-68
2021/12/19 10:26:40;;;;;;;12.73;6.50;;;;;;;4.51;82.38;99240.47;5072155;28;20211;-60
2021/12/19 10:29:07;;;;;;;12.73;6.17;;;;;;;4.23;83.48;99239.16;5071825;28;20198;-68
2021/12/19 10:31:34;;;;;;;12.70;6.20;;;;;;;4.36;83.82;99238.59;5071784;28;20230;-61
2021/12/19 10:34:19;;;;;;;12.73;6.33;;;;;;;4.48;83.46;99223.72;5071779;28;20226;-60
2021/12/19 10:36:46;;;;;;;13.17;6.40;;;;;;;4.36;82.41;99224.22;5072053;28;20230;-68
2021/12/19 10:39:15;;;;;;;14.40;6.50;;;;;;;4.45;83.28;99223.00;5071542;28;20671;-60
2021/12/19 10:41:44;;;;;;;9.97;5.77;;;;;;;4.49;83.17;99215.22;5071631;28;20590;-60
2021/12/19 10:45:29;;;;;;;12.53;5.53;;;;;;;4.56;82.32;99204.81;5072034;28;20198;-68
2021/12/19 10:47:22;;;;;;;11.67;5.90;;;;;;;4.71;82.81;99189.75;5071693;28;20257;-60
2021/12/19 10:49:49;;;;;;;12.23;6.00;;;;;;;5.20;80.99;99187.38;5071264;28;20232;-66
2021/12/19 10:52:30;;;;;;;10.67;5.50;;;;;;;5.48;79.97;99188.56;5071382;28;20223;-68
2021/12/19 10:54:58;;;;;;;12.20;6.13;;;;;;;5.76;79.59;99184.63;5071394;28;20352;-69
2021/12/19 10:57:34;;;;;;;10.57;5.90;;;;;;;6.25;78.11;99166.88;5071172;28;20229;-69
2021/12/19 11:00:01;;;;;;;11.30;6.07;;;;;;;5.97;76.70;99163.28;5071300;28;20198;-60
2021/12/19 11:02:41;;;;;;;10.93;5.50;;;;;;;6.12;76.59;99159.13;5071137;28;20222;-69
2021/12/19 11:05:36;;;;;;;14.67;6.33;;;;;;;6.02;76.48;99151.19;5071326;28;20205;-64
2021/12/19 11:08:04;;;;;;;9.83;5.30;;;;;;;5.64;76.67;99161.56;5070859;28;20226;-60
2021/12/19 11:10:32;;;;;;;10.07;5.07;;;;;;;5.83;77.93;99155.53;5071447;28;20222;-68
2021/12/19 11:13:09;;;;;;;9.57;5.70;;;;;;;6.05;75.68;99138.31;5070873;28;20230;-67
2021/12/19 11:15:36;;;;;;;12.77;5.53;;;;;;;6.07;76.14;99136.50;5071178;28;20230;-60
2021/12/19 11:18:03;;;;;;;10.60;5.70;;;;;;;6.23;74.76;99120.47;5070779;28;20214;-68
2021/12/19 11:20:31;;;;;;;9.77;5.93;;;;;;;6.20;75.45;99115.56;5071115;28;20560;-69
2021/12/19 11:22:58;;;;;;;19.73;6.50;;;;;;;6.10;75.86;99103.34;5070869;28;20229;-60
2021/12/19 11:25:25;;;;;;;14.17;6.47;;;;;;;6.15;76.69;99107.38;5070787;28;20199;-68
2021/12/19 11:27:51;;;;;;;10.00;5.73;;;;;;;5.97;76.82;99097.31;5069662;28;20226;-60
2021/12/19 11:30:20;;;;;;;10.70;6.10;;;;;;;6.13;75.92;99093.03;5070610;28;20218;-60
2021/12/19 11:32:59;;;;;;;11.77;5.37;;;;;;;6.23;75.88;99073.06;5070573;28;20222;-69
2021/12/19 11:35:31;;;;;;;11.60;6.30;;;;;;;5.91;76.87;99072.22;5070839;28;20620;-68
2021/12/19 11:38:01;;;;;;;14.97;6.40;;;;;;;5.82;76.00;99062.56;5070700;28;20317;-59
2021/12/19 11:40:34;;;;;;;13.00;6.87;;;;;;;5.80;77.92;99059.28;5070913;28;20202;-60
2021/12/19 11:43:06;;;;;;;11.67;6.10;;;;;;;5.38;78.21;99051.31;5070823;28;20219;-68
2021/12/19 11:45:38;;;;;;;11.67;6.53;;;;;;;5.19;79.72;99058.22;5070917;28;20199;-60
2021/12/19 11:48:17;;;;;;;13.33;6.33;;;;;;;5.25;80.22;99041.88;5070408;28;20218;-60
2021/12/19 11:50:48;;;;;;;13.63;7.20;;;;;;;5.36;79.63;99029.47;5070651;28;20201;-60
2021/12/19 11:53:25;;;;;;;10.70;6.03;;;;;;;5.65;79.89;99021.16;5070441;28;20203;-68
